Time;durP1;ratioP1;P1;durP2;ratioP2;P2;SDS_P1;SDS_P2;PMS_P1;PMS_P2;Temp;Humidity;BMP_temperature;BMP_pressure;BME280_temperature;BME280_humidity;BME280_pressure;Samples;Min_cycle;Max_cycle;Signal;HPM_P1;HPM_P2
2023/04/25 00:01:38;;;;;;;;;;;19.50;47.10;;;;;;4982528;28;19921;-54
2023/04/25 00:04:05;;;;;;;;;;;19.50;47.10;;;;;;4980189;28;20386;-55
2023/04/25 00:06:31;;;;;;;;;;;19.50;47.10;;;;;;4983032;28;19918;-54
2023/04/25 00:08:57;;;;;;;;;;;19.40;47.10;;;;;;4978817;28;19925;-54
2023/04/25 00:11:22;;;;;;;;;;;19.50;47.30;;;;;;4980307;28;19968;-54
2023/04/25 00:13:49;;;;;;;;;;;19.40;47.40;;;;;;4979990;28;19921;-54
2023/04/25 00:16:15;;;;;;;;;;;19.40;47.40;;;;;;4983722;28;19981;-54
2023/04/25 00:18:41;;;;;;;;;;;19.40;47.40;;;;;;4984568;28;19922;-54
2023/04/25 00:21:07;;;;;;;;;;;19.40;47.30;;;;;;4996926;28;19914;-54
2023/04/25 00:23:32;;;;;;;;;;;19.40;47.30;;;;;;4979248;28;20275;-55
2023/04/25 00:25:58;;;;;;;;;;;19.40;47.40;;;;;;4980794;28;20008;-55
2023/04/25 00:28:23;;;;;;;;;;;19.30;47.40;;;;;;4978634;28;19922;-55
2023/04/25 00:30:49;;;;;;;;;;;19.30;47.40;;;;;;4979620;28;19925;-54
2023/04/25 00:33:14;;;;;;;;;;;19.30;47.40;;;;;;4977618;28;20236;-55
2023/04/25 00:35:39;;;;;;;;;;;19.30;47.40;;;;;;4977137;28;20094;-54
2023/04/25 00:38:05;;;;;;;;;;;19.30;47.40;;;;;;4978675;28;19929;-54
2023/04/25 00:40:30;;;;;;;;;;;19.30;47.40;;;;;;4978300;28;19928;-54
2023/04/25 00:42:56;;;;;;;;;;;19.30;47.50;;;;;;4980217;28;20352;-54
2023/04/25 00:45:21;;;;;;;;;;;19.30;47.40;;;;;;4981485;28;19926;-54
2023/04/25 00:47:50;;;;;;;;;;;19.30;47.40;;;;;;5012346;28;19924;-54
2023/04/25 00:50:15;;;;;;;;;;;19.30;47.40;;;;;;5010951;28;19922;-55
2023/04/25 00:52:41;;;;;;;;;;;19.20;47.40;;;;;;4981337;28;19983;-54
2023/04/25 00:55:07;;;;;;;;;;;19.20;47.40;;;;;;5008704;28;20049;-55
2023/04/25 00:57:32;;;;;;;;;;;19.30;47.60;;;;;;4980677;28;20455;-54
2023/04/25 00:59:58;;;;;;;;;;;19.20;47.50;;;;;;4978487;28;20353;-54
2023/04/25 01:02:23;;;;;;;;;;;19.20;47.40;;;;;;4974534;28;20013;-55
2023/04/25 01:04:49;;;;;;;;;;;19.20;47.40;;;;;;4983512;28;19918;-54
2023/04/25 02:12:29;;;;;;;;;;;20.10;44.50;;;;;;4974143;28;20460;-55
2023/04/25 02:14:54;;;;;;;;;;;20.00;44.40;;;;;;4983962;28;20008;-54
2023/04/25 02:17:21;;;;;;;;;;;20.00;45.00;;;;;;4989569;28;20266;-55
2023/04/25 02:19:47;;;;;;;;;;;20.00;44.40;;;;;;4982198;28;20283;-55
2023/04/25 02:22:12;;;;;;;;;;;19.90;44.40;;;;;;4980567;28;19945;-54
2023/04/25 02:24:38;;;;;;;;;;;19.90;44.30;;;;;;4980732;28;19913;-54
2023/04/25 02:27:03;;;;;;;;;;;19.90;44.30;;;;;;4977733;28;19920;-54
2023/04/25 02:29:29;;;;;;;;;;;19.80;44.20;;;;;;4974640;28;19922;-54
2023/04/25 02:31:54;;;;;;;;;;;19.80;44.20;;;;;;4979313;28;19929;-53
2023/04/25 02:34:20;;;;;;;;;;;19.80;44.20;;;;;;4974309;28;20291;-53
2023/04/25 02:36:45;;;;;;;;;;;19.80;44.20;;;;;;4976793;28;19926;-54
2023/04/25 02:39:11;;;;;;;;;;;19.80;44.20;;;;;;4976127;28;19921;-53
2023/04/25 02:41:36;;;;;;;;;;;19.80;44.20;;;;;;4977186;28;19921;-54
2023/04/25 02:44:02;;;;;;;;;;;19.80;44.30;;;;;;4978146;28;20465;-53
2023/04/25 02:46:27;;;;;;;;;;;19.80;44.20;;;;;;5008392;28;19918;-54
2023/04/25 02:48:53;;;;;;;;;;;19.70;44.20;;;;;;4981276;28;19918;-54
2023/04/25 02:51:18;;;;;;;;;;;19.70;44.20;;;;;;4979284;28;20354;-54
2023/04/25 02:53:44;;;;;;;;;;;19.70;44.10;;;;;;4979583;28;19914;-54
2023/04/25 02:56:09;;;;;;;;;;;19.70;44.10;;;;;;4978364;28;19922;-54
2023/04/25 02:58:35;;;;;;;;;;;19.70;44.10;;;;;;4977723;28;19957;-54
2023/04/25 03:01:00;;;;;;;;;;;19.70;44.00;;;;;;4982045;28;19918;-54
2023/04/25 03:03:25;;;;;;;;;;;19.80;44.00;;;;;;4981308;28;19923;-54
2023/04/25 03:05:51;;;;;;;;;;;19.70;43.80;;;;;;4977748;28;19914;-54
2023/04/25 03:08:17;;;;;;;;;;;19.70;43.70;;;;;;4989386;28;19917;-54
2023/04/25 03:10:42;;;;;;;;;;;19.70;43.50;;;;;;4977865;28;19917;-54
2023/04/25 03:13:08;;;;;;;;;;;19.80;43.50;;;;;;4976686;28;20362;-55
2023/04/25 03:15:34;;;;;;;;;;;19.80;43.30;;;;;;4978873;28;20374;-54
2023/04/25 03:18:00;;;;;;;;;;;19.80;43.30;;;;;;4986195;28;19914;-54
2023/04/25 03:20:25;;;;;;;;;;;19.80;43.20;;;;;;4984659;28;19937;-54
2023/04/25 03:22:51;;;;;;;;;;;19.80;43.20;;;;;;4994528;28;19917;-54
2023/04/25 03:25:16;;;;;;;;;;;19.70;43.10;;;;;;4980195;28;19949;-54
2023/04/25 03:27:41;;;;;;;;;;;19.70;43.20;;;;;;4981518;28;19921;-54
2023/04/25 03:30:07;;;;;;;;;;;19.70;43.20;;;;;;4979180;28;20374;-54
2023/04/25 03:32:33;;;;;;;;;;;19.70;43.20;;;;;;5011860;28;20318;-54
2023/04/25 03:34:58;;;;;;;;;;;19.90;43.20;;;;;;4979813;28;19982;-53
2023/04/25 03:37:24;;;;;;;;;;;19.80;42.90;;;;;;4980762;28;19918;-54
2023/04/25 03:39:49;;;;;;;;;;;19.80;42.90;;;;;;4979913;28;19914;-54
2023/04/25 03:42:15;;;;;;;;;;;19.70;42.80;;;;;;4979278;28;20362;-54
2023/04/25 03:44:40;;;;;;;;;;;19.70;42.80;;;;;;4979690;28;20430;-54
2023/04/25 03:47:06;;;;;;;;;;;19.70;42.70;;;;;;4981407;28;19914;-54
2023/04/25 03:49:32;;;;;;;;;;;19.70;42.60;;;;;;4981109;28;19925;-54
2023/04/25 03:51:57;;;;;;;;;;;19.70;42.60;;;;;;4984032;28;19918;-54
2023/04/25 03:54:23;;;;;;;;;;;19.70;42.50;;;;;;4982372;28;19918;-54
2023/04/25 03:56:48;;;;;;;;;;;19.70;42.50;;;;;;4994019;28;19925;-54
2023/04/25 03:59:14;;;;;;;;;;;19.70;42.60;;;;;;4983320;28;20008;-54
2023/04/25 04:01:39;;;;;;;;;;;19.70;42.60;;;;;;4977911;28;19918;-53
2023/04/25 04:04:05;;;;;;;;;;;19.70;42.50;;;;;;4979161;28;19924;-54
2023/04/25 04:06:30;;;;;;;;;;;19.70;42.40;;;;;;4981133;28;19980;-54
2023/04/25 04:08:56;;;;;;;;;;;19.70;42.40;;;;;;4983817;28;19914;-54
2023/04/25 04:11:22;;;;;;;;;;;19.70;42.30;;;;;;4984298;28;19921;-54
2023/04/25 04:13:47;;;;;;;;;;;19.60;42.30;;;;;;4977920;28;19952;-54
2023/04/25 04:16:12;;;;;;;;;;;19.60;42.30;;;;;;4978729;28;19928;-54
2023/04/25 04:18:38;;;;;;;;;;;19.60;42.20;;;;;;4985564;28;19913;-54
2023/04/25 04:21:03;;;;;;;;;;;19.60;42.60;;;;;;4983550;28;19914;-54
2023/04/25 04:23:29;;;;;;;;;;;19.60;41.90;;;;;;4980337;28;20317;-54
2023/04/25 04:25:55;;;;;;;;;;;19.70;42.00;;;;;;4974529;28;19913;-54
2023/04/25 04:28:21;;;;;;;;;;;19.60;41.90;;;;;;4979074;28;19920;-54
2023/04/25 04:30:47;;;;;;;;;;;19.60;41.70;;;;;;4981000;28;21251;-54
2023/04/25 04:33:12;;;;;;;;;;;19.60;41.70;;;;;;4975850;28;20448;-54
2023/04/25 04:35:38;;;;;;;;;;;19.60;41.60;;;;;;4984122;28;19922;-53
2023/04/25 04:38:03;;;;;;;;;;;19.60;41.40;;;;;;4985900;28;19929;-54
2023/04/25 04:40:31;;;;;;;;;;;19.70;41.30;;;;;;4988459;28;19921;-53
2023/04/25 04:42:57;;;;;;;;;;;19.70;41.20;;;;;;4983347;28;20428;-54
2023/04/25 04:45:22;;;;;;;;;;;19.60;41.10;;;;;;4984997;28;20362;-54
2023/04/25 04:47:48;;;;;;;;;;;19.60;41.10;;;;;;4989264;28;19921;-54
2023/04/25 04:50:14;;;;;;;;;;;19.60;41.00;;;;;;5016338;28;20263;-54
2023/04/25 04:52:40;;;;;;;;;;;19.60;41.00;;;;;;4981412;28;19921;-53
2023/04/25 04:55:05;;;;;;;;;;;19.60;41.00;;;;;;4978736;28;20314;-54
2023/04/25 04:57:32;;;;;;;;;;;19.60;40.90;;;;;;4978567;28;20266;-54
2023/04/25 04:59:58;;;;;;;;;;;19.60;40.90;;;;;;4978060;28;20464;-54
2023/04/25 05:02:23;;;;;;;;;;;19.50;40.80;;;;;;4983156;28;20016;-53
2023/04/25 05:04:50;;;;;;;;;;;19.50;40.70;;;;;;4982900;28;19914;-53
2023/04/25 05:07:15;;;;;;;;;;;19.50;40.70;;;;;;4984620;28;19953;-54
2023/04/25 05:09:41;;;;;;;;;;;19.60;40.80;;;;;;4983467;28;20027;-54
2023/04/25 05:12:06;;;;;;;;;;;19.60;40.80;;;;;;4985282;28;20009;-54
2023/04/25 05:14:32;;;;;;;;;;;19.60;40.70;;;;;;4976707;28;19918;-54
2023/04/25 05:16:58;;;;;;;;;;;19.70;40.80;;;;;;4977370;28;19925;-54
2023/04/25 05:19:23;;;;;;;;;;;19.70;40.70;;;;;;4978799;28;19921;-54
2023/04/25 05:21:49;;;;;;;;;;;19.70;40.90;;;;;;4987160;28;19956;-54
2023/04/25 05:24:14;;;;;;;;;;;19.70;40.90;;;;;;4976484;28;19914;-54
2023/04/25 05:26:40;;;;;;;;;;;19.70;40.90;;;;;;4979434;28;19924;-54
2023/04/25 05:29:06;;;;;;;;;;;19.70;40.80;;;;;;4979914;28;19960;-54
2023/04/25 05:31:31;;;;;;;;;;;19.70;40.90;;;;;;4977418;28;19940;-54
2023/04/25 05:33:57;;;;;;;;;;;19.70;41.00;;;;;;4980958;28;20338;-53
2023/04/25 05:36:22;;;;;;;;;;;19.70;41.00;;;;;;4976920;28;19922;-54
2023/04/25 05:38:48;;;;;;;;;;;19.70;40.80;;;;;;4976676;28;19914;-53
2023/04/25 05:41:13;;;;;;;;;;;19.70;40.90;;;;;;4977293;28;19949;-54
2023/04/25 05:43:39;;;;;;;;;;;19.70;41.10;;;;;;5008351;28;19922;-53
2023/04/25 05:46:04;;;;;;;;;;;19.70;41.20;;;;;;4980113;28;19952;-54
2023/04/25 05:48:29;;;;;;;;;;;19.70;41.40;;;;;;4979367;28;20401;-54
2023/04/25 05:50:55;;;;;;;;;;;19.60;41.10;;;;;;4979315;28;19914;-54
2023/04/25 05:53:21;;;;;;;;;;;19.60;41.10;;;;;;4976316;28;19913;-55
2023/04/25 05:55:47;;;;;;;;;;;19.50;41.50;;;;;;4981188;28;19929;-54
2023/04/25 05:58:12;;;;;;;;;;;19.60;41.30;;;;;;4977914;28;19918;-54
2023/04/25 06:00:38;;;;;;;;;;;19.60;41.30;;;;;;4976768;28;19922;-54
2023/04/25 06:03:03;;;;;;;;;;;19.60;41.30;;;;;;4978186;28;20020;-55
2023/04/25 06:05:29;;;;;;;;;;;19.60;41.30;;;;;;4976366;28;19914;-54
2023/04/25 06:07:54;;;;;;;;;;;19.70;41.40;;;;;;4975655;28;19928;-54
2023/04/25 06:10:20;;;;;;;;;;;19.70;41.40;;;;;;4976013;28;19917;-54
2023/04/25 06:12:45;;;;;;;;;;;19.70;41.40;;;;;;4977844;28;19941;-54
2023/04/25 06:15:11;;;;;;;;;;;19.70;41.30;;;;;;4978575;28;19925;-54
2023/04/25 06:17:37;;;;;;;;;;;19.70;41.30;;;;;;4977299;28;19918;-55
2023/04/25 06:20:03;;;;;;;;;;;19.80;41.30;;;;;;4983060;28;20603;-54
2023/04/25 06:22:29;;;;;;;;;;;19.80;41.40;;;;;;4979939;28;20024;-54
2023/04/25 06:24:57;;;;;;;;;;;19.80;41.30;;;;;;4979181;28;19920;-54
2023/04/25 06:27:22;;;;;;;;;;;19.80;41.20;;;;;;4980568;28;20377;-54
2023/04/25 06:29:47;;;;;;;;;;;19.90;41.40;;;;;;4976788;28;19957;-54
2023/04/25 06:32:13;;;;;;;;;;;19.90;41.30;;;;;;4976337;28;19972;-55
2023/04/25 06:34:38;;;;;;;;;;;19.90;41.30;;;;;;4984980;28;19943;-55
2023/04/25 06:37:04;;;;;;;;;;;19.80;41.30;;;;;;4981315;28;20305;-55
2023/04/25 06:39:29;;;;;;;;;;;19.80;41.40;;;;;;4980741;28;20320;-55
2023/04/25 06:41:55;;;;;;;;;;;19.80;41.40;;;;;;4977907;28;20000;-54
2023/04/25 06:44:22;;;;;;;;;;;19.80;41.40;;;;;;4976604;28;19929;-55
2023/04/25 06:46:48;;;;;;;;;;;19.80;41.50;;;;;;4977973;28;20532;-55
2023/04/25 06:49:13;;;;;;;;;;;19.80;41.50;;;;;;4980296;28;20386;-54
2023/04/25 06:51:40;;;;;;;;;;;19.80;41.60;;;;;;4983998;28;20362;-55
2023/04/25 06:54:05;;;;;;;;;;;19.80;41.60;;;;;;4979731;28;19922;-54
2023/04/25 06:56:31;;;;;;;;;;;19.80;41.70;;;;;;4980762;28;19926;-55
2023/04/25 06:58:56;;;;;;;;;;;19.70;41.70;;;;;;4978117;28;19979;-54
2023/04/25 07:01:22;;;;;;;;;;;19.70;41.70;;;;;;4983791;28;19925;-54
2023/04/25 07:03:47;;;;;;;;;;;19.70;41.90;;;;;;4982902;28;19921;-55
2023/04/25 07:06:13;;;;;;;;;;;19.70;41.70;;;;;;4978889;28;19929;-55
2023/04/25 07:08:38;;;;;;;;;;;19.80;41.60;;;;;;5013386;28;19918;-54
2023/04/25 07:11:04;;;;;;;;;;;19.80;41.60;;;;;;4984055;28;19926;-54
2023/04/25 07:13:29;;;;;;;;;;;19.80;41.70;;;;;;4980547;28;19921;-55
2023/04/25 07:15:55;;;;;;;;;;;19.80;41.70;;;;;;4985814;28;19936;-54
2023/04/25 07:18:21;;;;;;;;;;;19.80;41.60;;;;;;4986234;28;19924;-54
2023/04/25 07:20:46;;;;;;;;;;;19.80;41.80;;;;;;4982123;28;24332;-54
2023/04/25 07:23:12;;;;;;;;;;;19.70;41.80;;;;;;4981895;28;19917;-54
2023/04/25 07:25:37;;;;;;;;;;;19.70;42.30;;;;;;4987050;28;19921;-55
2023/04/25 07:28:03;;;;;;;;;;;19.70;42.30;;;;;;4981407;28;20451;-54
2023/04/25 07:30:28;;;;;;;;;;;19.70;42.30;;;;;;4983180;28;20393;-55
2023/04/25 07:32:54;;;;;;;;;;;19.70;42.20;;;;;;4983271;28;19913;-54
2023/04/25 07:35:19;;;;;;;;;;;19.70;42.30;;;;;;4984418;28;19922;-55
2023/04/25 07:37:45;;;;;;;;;;;19.60;42.10;;;;;;4985463;28;19914;-55
2023/04/25 07:40:10;;;;;;;;;;;19.70;42.30;;;;;;4981275;28;19941;-55
2023/04/25 07:42:36;;;;;;;;;;;19.70;42.20;;;;;;4981905;28;19922;-55
2023/04/25 07:45:02;;;;;;;;;;;19.70;42.20;;;;;;4980003;28;19924;-55
2023/04/25 07:47:28;;;;;;;;;;;19.70;42.30;;;;;;4981112;28;19932;-55
2023/04/25 07:49:54;;;;;;;;;;;19.70;42.30;;;;;;4979666;28;20558;-54
2023/04/25 07:52:19;;;;;;;;;;;19.60;42.30;;;;;;4980827;28;20745;-55
2023/04/25 07:54:45;;;;;;;;;;;19.60;42.30;;;;;;4979738;28;19926;-54
2023/04/25 07:57:10;;;;;;;;;;;19.60;42.30;;;;;;4994417;28;19918;-54
2023/04/25 07:59:36;;;;;;;;;;;19.60;42.50;;;;;;4984663;28;20447;-54
2023/04/25 08:02:02;;;;;;;;;;;19.80;42.90;;;;;;4986236;28;19918;-54
2023/04/25 08:04:27;;;;;;;;;;;20.30;41.90;;;;;;4988510;28;20370;-55
2023/04/25 08:06:53;;;;;;;;;;;21.10;40.70;;;;;;4987963;28;19922;-54
2023/04/25 08:09:19;;;;;;;;;;;21.70;39.60;;;;;;4985364;28;19914;-55
2023/04/25 08:11:44;;;;;;;;;;;22.20;38.80;;;;;;4982924;28;20000;-54
2023/04/25 08:14:11;;;;;;;;;;;22.50;38.20;;;;;;4986171;28;19918;-54
2023/04/25 08:16:36;;;;;;;;;;;22.70;37.90;;;;;;4989894;28;19921;-55
2023/04/25 08:19:02;;;;;;;;;;;22.70;37.60;;;;;;4993479;28;19924;-54
2023/04/25 08:21:27;;;;;;;;;;;22.70;37.70;;;;;;4989167;28;19924;-54
2023/04/25 08:23:53;;;;;;;;;;;22.70;37.90;;;;;;4983404;28;19925;-54
2023/04/25 08:26:18;;;;;;;;;;;22.70;37.80;;;;;;4985676;28;19925;-55
2023/04/25 08:28:43;;;;;;;;;;;22.70;37.80;;;;;;4983361;28;19917;-54
2023/04/25 08:31:09;;;;;;;;;;;22.80;37.70;;;;;;4985798;28;19918;-55
2023/04/25 08:33:34;;;;;;;;;;;22.80;37.70;;;;;;4982287;28;19940;-54
2023/04/25 08:36:00;;;;;;;;;;;22.90;37.50;;;;;;4984380;28;20263;-54
2023/04/25 08:38:25;;;;;;;;;;;22.80;37.70;;;;;;4982138;28;20986;-54
2023/04/25 08:40:55;;;;;;;;;;;22.80;37.70;;;;;;4983131;28;21663;-53
2023/04/25 08:43:20;;;;;;;;;;;22.80;37.80;;;;;;4982621;28;19918;-53
2023/04/25 08:45:46;;;;;;;;;;;22.90;37.90;;;;;;4984087;28;19920;-54
2023/04/25 08:48:12;;;;;;;;;;;23.00;37.80;;;;;;4984014;28;19913;-56
2023/04/25 08:50:42;;;;;;;;;;;23.10;37.60;;;;;;4983580;28;19918;-54
2023/04/25 08:53:08;;;;;;;;;;;23.30;37.10;;;;;;5015135;28;19921;-54
2023/04/25 08:55:34;;;;;;;;;;;23.40;36.90;;;;;;4980093;28;19992;-54
2023/04/25 08:58:00;;;;;;;;;;;23.40;37.10;;;;;;4986211;28;19917;-54
2023/04/25 09:00:25;;;;;;;;;;;23.30;37.20;;;;;;5000243;28;19922;-54
2023/04/25 09:02:51;;;;;;;;;;;23.30;37.20;;;;;;4987225;28;20025;-54
2023/04/25 09:05:16;;;;;;;;;;;23.20;37.20;;;;;;4986447;28;19964;-51
2023/04/25 09:07:42;;;;;;;;;;;23.20;37.40;;;;;;4991838;28;19921;-54
2023/04/25 09:10:07;;;;;;;;;;;23.10;37.50;;;;;;4997695;28;19918;-54
2023/04/25 09:12:33;;;;;;;;;;;23.20;37.40;;;;;;4985716;28;19937;-55
2023/04/25 09:15:03;;;;;;;;;;;23.20;37.40;;;;;;4995732;28;19925;-54
2023/04/25 09:17:29;;;;;;;;;;;23.20;37.20;;;;;;5014789;28;20406;-54
2023/04/25 09:19:54;;;;;;;;;;;23.10;37.40;;;;;;4986223;28;19914;-53
2023/04/25 09:22:22;;;;;;;;;;;22.90;37.70;;;;;;4986215;28;19918;-53
2023/04/25 09:24:49;;;;;;;;;;;22.80;38.10;;;;;;4984816;28;19918;-54
2023/04/25 09:27:18;;;;;;;;;;;22.80;38.00;;;;;;4986705;28;22341;-54
2023/04/25 09:29:44;;;;;;;;;;;22.90;37.80;;;;;;4990727;28;19972;-53
2023/04/25 09:32:15;;;;;;;;;;;23.00;37.50;;;;;;4986827;28;20355;-53
2023/04/25 09:34:41;;;;;;;;;;;23.20;37.30;;;;;;4986542;28;20400;-54
2023/04/25 09:37:08;;;;;;;;;;;23.20;37.30;;;;;;4987563;28;20305;-53
2023/04/25 09:39:34;;;;;;;;;;;23.00;37.60;;;;;;4987560;28;19932;-54
2023/04/25 09:42:00;;;;;;;;;;;22.80;38.00;;;;;;4987790;28;19921;-53
2023/04/25 09:44:26;;;;;;;;;;;22.70;38.00;;;;;;4989426;28;19914;-57
2023/04/25 09:46:53;;;;;;;;;;;22.80;37.90;;;;;;4986040;28;19913;-53
2023/04/25 09:49:19;;;;;;;;;;;23.10;37.50;;;;;;4987185;28;19975;-53
2023/04/25 09:51:55;;;;;;;;;;;23.30;37.10;;;;;;4996361;28;19918;-53
2023/04/25 09:54:20;;;;;;;;;;;23.40;37.10;;;;;;4990457;28;20392;-53
2023/04/25 09:56:47;;;;;;;;;;;23.40;37.10;;;;;;4991422;28;20000;-53
2023/04/25 09:59:12;;;;;;;;;;;23.40;37.00;;;;;;4990862;28;19918;-53
2023/04/25 10:01:38;;;;;;;;;;;23.40;37.00;;;;;;4994001;28;19976;-53
2023/04/25 10:04:04;;;;;;;;;;;23.20;37.60;;;;;;4996991;28;19972;-54
2023/04/25 10:06:29;;;;;;;;;;;22.80;38.20;;;;;;4992433;28;19920;-54
2023/04/25 10:08:55;;;;;;;;;;;22.50;38.70;;;;;;4989426;28;20009;-54
2023/04/25 10:11:22;;;;;;;;;;;22.50;38.70;;;;;;4987057;28;19925;-53
2023/04/25 10:13:48;;;;;;;;;;;22.70;38.30;;;;;;4993246;28;19918;-55
2023/04/25 10:16:13;;;;;;;;;;;22.90;38.20;;;;;;4992537;28;20020;-54
2023/04/25 10:18:39;;;;;;;;;;;22.80;38.30;;;;;;5023514;28;19918;-53
2023/04/25 10:21:04;;;;;;;;;;;22.70;38.40;;;;;;4996627;28;19914;-53
2023/04/25 10:23:30;;;;;;;;;;;22.70;38.60;;;;;;4986832;28;19956;-53
2023/04/25 10:25:55;;;;;;;;;;;22.80;38.40;;;;;;5016206;28;19922;-52
2023/04/25 10:28:21;;;;;;;;;;;23.10;38.10;;;;;;4984908;28;19918;-53
2023/04/25 10:31:07;;;;;;;;;;;23.40;37.50;;;;;;4984010;28;19914;-53
2023/04/25 10:33:33;;;;;;;;;;;23.70;37.10;;;;;;4985872;28;19948;-53
2023/04/25 10:35:59;;;;;;;;;;;23.90;36.70;;;;;;4986026;28;19925;-54
2023/04/25 10:38:25;;;;;;;;;;;23.90;36.70;;;;;;4983438;28;20325;-53
2023/04/25 10:41:04;;;;;;;;;;;23.90;36.70;;;;;;5015383;28;19914;-54
2023/04/25 10:43:33;;;;;;;;;;;23.80;36.60;;;;;;4985003;28;19914;-54
2023/04/25 10:46:01;;;;;;;;;;;23.70;36.70;;;;;;4985604;28;19921;-54
2023/04/25 10:48:27;;;;;;;;;;;23.80;36.80;;;;;;4981763;28;19960;-52
2023/04/25 10:51:12;;;;;;;;;;;23.80;36.60;;;;;;4985893;28;19918;-54
2023/04/25 10:53:37;;;;;;;;;;;23.70;36.80;;;;;;4984076;28;19961;-54
2023/04/25 10:56:10;;;;;;;;;;;23.60;37.00;;;;;;4978595;28;20020;-55
2023/04/25 10:58:35;;;;;;;;;;;23.50;37.30;;;;;;4981782;28;19925;-53
2023/04/25 11:01:01;;;;;;;;;;;23.40;37.50;;;;;;4990256;28;19918;-54
2023/04/25 11:03:26;;;;;;;;;;;23.30;37.40;;;;;;4986479;28;20294;-56
2023/04/25 11:05:52;;;;;;;;;;;23.40;37.50;;;;;;4981862;28;19965;-54
2023/04/25 11:08:17;;;;;;;;;;;23.30;37.40;;;;;;5023897;28;20416;-54
2023/04/25 11:10:43;;;;;;;;;;;23.40;37.30;;;;;;5021777;28;19913;-55
2023/04/25 11:13:08;;;;;;;;;;;23.50;37.00;;;;;;5027205;28;19932;-54
2023/04/25 11:15:34;;;;;;;;;;;23.60;36.70;;;;;;4992378;28;19985;-55
2023/04/25 11:17:59;;;;;;;;;;;23.80;36.60;;;;;;4987797;28;19932;-55
2023/04/25 11:20:25;;;;;;;;;;;24.00;36.30;;;;;;4984261;28;19928;-53
2023/04/25 11:22:51;;;;;;;;;;;24.20;36.00;;;;;;4983660;28;20034;-52
2023/04/25 11:25:16;;;;;;;;;;;24.20;35.80;;;;;;5009129;28;20374;-53
2023/04/25 11:27:51;;;;;;;;;;;24.20;36.00;;;;;;4984101;28;20370;-54
2023/04/25 11:30:17;;;;;;;;;;;24.10;36.00;;;;;;4977465;28;19941;-53
2023/04/25 11:32:45;;;;;;;;;;;24.10;36.30;;;;;;4983239;28;19917;-53
2023/04/25 11:35:11;;;;;;;;;;;23.80;36.60;;;;;;4983250;28;19921;-53
2023/04/25 11:37:37;;;;;;;;;;;23.50;37.00;;;;;;4989550;28;20378;-53
2023/04/25 11:40:03;;;;;;;;;;;23.30;37.50;;;;;;5022847;28;19918;-54
2023/04/25 11:42:28;;;;;;;;;;;23.30;37.80;;;;;;4989303;28;19922;-52
2023/04/25 11:44:54;;;;;;;;;;;23.50;37.60;;;;;;5019346;28;20278;-53
2023/04/25 11:47:19;;;;;;;;;;;23.50;37.40;;;;;;5018426;28;19968;-53
2023/04/25 11:49:45;;;;;;;;;;;23.40;37.70;;;;;;4991288;28;19921;-53
2023/04/25 11:52:10;;;;;;;;;;;23.30;37.90;;;;;;4989103;28;19996;-53
2023/04/25 11:54:36;;;;;;;;;;;23.30;37.80;;;;;;4986588;28;20012;-53
2023/04/25 11:57:03;;;;;;;;;;;23.50;37.50;;;;;;5024635;28;20671;-53
2023/04/25 11:59:28;;;;;;;;;;;23.50;37.40;;;;;;4997286;28;19917;-53
2023/04/25 12:01:54;;;;;;;;;;;23.40;37.40;;;;;;4991228;28;19928;-53
2023/04/25 12:04:22;;;;;;;;;;;23.30;37.80;;;;;;4995182;28;20007;-53
2023/04/25 12:06:48;;;;;;;;;;;23.20;38.00;;;;;;4990850;28;20056;-53
2023/04/25 12:09:15;;;;;;;;;;;23.30;38.00;;;;;;4995092;28;19949;-53
2023/04/25 12:12:05;;;;;;;;;;;23.40;37.70;;;;;;4990586;28;19929;-53
2023/04/25 12:14:32;;;;;;;;;;;23.70;37.40;;;;;;4989232;28;19940;-54
2023/04/25 12:16:58;;;;;;;;;;;23.80;37.20;;;;;;4990017;28;19928;-53
2023/04/25 12:19:23;;;;;;;;;;;23.90;37.20;;;;;;4995769;28;20095;-53
2023/04/25 12:21:49;;;;;;;;;;;23.90;37.20;;;;;;4994255;28;20417;-53
2023/04/25 12:24:19;;;;;;;;;;;23.80;37.20;;;;;;4999271;28;19917;-55
2023/04/25 12:26:47;;;;;;;;;;;23.80;37.40;;;;;;4998917;28;19918;-53
2023/04/25 12:29:17;;;;;;;;;;;23.70;37.50;;;;;;4987249;28;19918;-53
2023/04/25 12:31:42;;;;;;;;;;;23.60;37.60;;;;;;4989490;28;19973;-54
2023/04/25 12:34:08;;;;;;;;;;;23.70;37.50;;;;;;4987258;28;20279;-54
2023/04/25 12:36:33;;;;;;;;;;;23.70;37.20;;;;;;4989023;28;20358;-54
2023/04/25 12:39:03;;;;;;;;;;;23.80;37.10;;;;;;4979136;28;20020;-54
2023/04/25 12:41:29;;;;;;;;;;;23.80;36.70;;;;;;4990842;28;19914;-54
2023/04/25 12:43:55;;;;;;;;;;;23.90;36.70;;;;;;4989969;28;19929;-54
2023/04/25 12:46:20;;;;;;;;;;;23.70;36.90;;;;;;4986715;28;19913;-54
2023/04/25 12:48:46;;;;;;;;;;;23.50;37.30;;;;;;4984960;28;20384;-54
2023/04/25 12:51:11;;;;;;;;;;;23.50;37.60;;;;;;5029449;28;19962;-54
2023/04/25 12:53:38;;;;;;;;;;;23.50;37.50;;;;;;4984442;28;20003;-55
2023/04/25 12:56:04;;;;;;;;;;;23.60;37.30;;;;;;4984693;28;19925;-54
2023/04/25 12:58:29;;;;;;;;;;;23.70;37.10;;;;;;4979948;28;19914;-55
2023/04/25 13:00:55;;;;;;;;;;;23.70;37.20;;;;;;4988049;28;19918;-54
2023/04/25 13:03:21;;;;;;;;;;;23.60;37.20;;;;;;4987045;28;20639;-54
2023/04/25 13:05:46;;;;;;;;;;;23.60;37.20;;;;;;4987001;28;19921;-53
2023/04/25 13:08:12;;;;;;;;;;;23.70;37.00;;;;;;4999583;28;19918;-54
2023/04/25 13:10:38;;;;;;;;;;;23.70;36.90;;;;;;5005575;28;20012;-54
2023/04/25 13:13:04;;;;;;;;;;;23.70;37.00;;;;;;4992985;28;19957;-53
2023/04/25 13:15:30;;;;;;;;;;;23.70;37.00;;;;;;5021824;28;19917;-53
2023/04/25 13:17:55;;;;;;;;;;;23.70;37.00;;;;;;4984169;28;20012;-54
2023/04/25 13:20:22;;;;;;;;;;;23.80;36.90;;;;;;4986506;28;20371;-54
2023/04/25 13:22:47;;;;;;;;;;;24.00;36.80;;;;;;4986585;28;19969;-54
2023/04/25 13:25:13;;;;;;;;;;;24.10;36.60;;;;;;4988014;28;19925;-54
2023/04/25 13:27:40;;;;;;;;;;;24.20;36.40;;;;;;4991864;28;19966;-53
2023/04/25 13:30:08;;;;;;;;;;;24.10;36.30;;;;;;4988340;28;19968;-54
2023/04/25 13:32:35;;;;;;;;;;;24.10;36.40;;;;;;4983704;28;19932;-54
2023/04/25 13:35:02;;;;;;;;;;;24.00;36.50;;;;;;4983695;28;19967;-54
2023/04/25 13:37:27;;;;;;;;;;;23.90;36.60;;;;;;4987678;28;19922;-54
2023/04/25 13:39:55;;;;;;;;;;;23.90;36.70;;;;;;4992276;28;19917;-54
2023/04/25 13:42:20;;;;;;;;;;;23.90;36.70;;;;;;4992733;28;19932;-54
2023/04/25 13:44:46;;;;;;;;;;;24.00;36.70;;;;;;4993450;28;19996;-54
2023/04/25 13:47:11;;;;;;;;;;;24.20;36.60;;;;;;4991709;28;19940;-55
2023/04/25 13:49:37;;;;;;;;;;;24.40;36.10;;;;;;4981447;28;20004;-54
2023/04/25 13:52:02;;;;;;;;;;;24.60;35.90;;;;;;4989567;28;19945;-54
2023/04/25 13:54:28;;;;;;;;;;;24.70;35.80;;;;;;4985318;28;19928;-53
2023/04/25 13:56:58;;;;;;;;;;;24.70;35.70;;;;;;4991097;28;19933;-53
2023/04/25 13:59:23;;;;;;;;;;;24.70;35.90;;;;;;4998020;28;20004;-53
2023/04/25 14:01:49;;;;;;;;;;;24.50;35.90;;;;;;4986819;28;20006;-54
2023/04/25 14:04:15;;;;;;;;;;;24.50;36.10;;;;;;4985196;28;19917;-54
2023/04/25 14:06:41;;;;;;;;;;;24.50;36.10;;;;;;4986590;28;20365;-53
2023/04/25 14:09:09;;;;;;;;;;;24.40;36.20;;;;;;4985623;28;19928;-54
2023/04/25 14:11:36;;;;;;;;;;;24.40;36.20;;;;;;4985726;28;20007;-54
2023/04/25 14:14:01;;;;;;;;;;;24.40;36.20;;;;;;4984032;28;19922;-54
2023/04/25 14:16:27;;;;;;;;;;;24.30;36.00;;;;;;4984683;28;20634;-53
2023/04/25 14:18:54;;;;;;;;;;;24.40;36.10;;;;;;5013368;28;19981;-53
2023/04/25 14:21:20;;;;;;;;;;;24.30;36.20;;;;;;5024516;28;19969;-53
2023/04/25 14:23:46;;;;;;;;;;;24.20;36.50;;;;;;4984988;28;19968;-53
2023/04/25 14:26:12;;;;;;;;;;;24.10;36.60;;;;;;4986830;28;19914;-52
2023/04/25 14:28:38;;;;;;;;;;;24.20;36.70;;;;;;4986908;28;19917;-53
2023/04/25 14:31:03;;;;;;;;;;;24.20;36.50;;;;;;4988538;28;19914;-53
2023/04/25 14:33:29;;;;;;;;;;;24.30;36.40;;;;;;4982397;28;19918;-53
2023/04/25 14:35:54;;;;;;;;;;;24.30;36.50;;;;;;4986944;28;19969;-53
2023/04/25 14:38:23;;;;;;;;;;;24.20;36.60;;;;;;4985972;28;19917;-53
2023/04/25 14:40:49;;;;;;;;;;;24.10;36.90;;;;;;4984995;28;19913;-53
2023/04/25 14:43:14;;;;;;;;;;;24.10;36.90;;;;;;4986045;28;19964;-52
2023/04/25 14:45:40;;;;;;;;;;;24.20;36.90;;;;;;4986281;28;19921;-53
2023/04/25 14:48:05;;;;;;;;;;;24.30;36.90;;;;;;4983958;28;19968;-52
2023/04/25 14:50:31;;;;;;;;;;;24.30;36.80;;;;;;4987365;28;20366;-53
2023/04/25 14:52:58;;;;;;;;;;;24.20;36.90;;;;;;4985782;28;27570;-53
2023/04/25 14:55:24;;;;;;;;;;;24.10;36.90;;;;;;4984554;28;19921;-53
2023/04/25 14:57:50;;;;;;;;;;;24.20;36.90;;;;;;4981616;28;19914;-53
2023/04/25 15:00:16;;;;;;;;;;;24.30;37.00;;;;;;5011892;28;19921;-53
2023/04/25 15:02:41;;;;;;;;;;;24.30;36.90;;;;;;4985892;28;20021;-52
2023/04/25 15:05:08;;;;;;;;;;;24.20;37.00;;;;;;4982367;28;20385;-52
2023/04/25 15:07:33;;;;;;;;;;;24.10;37.00;;;;;;4982708;28;19917;-52
2023/04/25 15:10:00;;;;;;;;;;;24.00;37.20;;;;;;4992454;28;20004;-53
2023/04/25 15:12:28;;;;;;;;;;;24.10;37.10;;;;;;4994412;28;19930;-52
2023/04/25 15:14:53;;;;;;;;;;;24.10;36.90;;;;;;5002475;28;19917;-52